Main page
METAR-TAF:

METAR-TAF

Airports :

MoD Boscombe Down

Boscombe Down, England

latitude: 51-10N, longitude: 001-45W, elevation: 124 m

Current weather observation

The report was made 1 hour and 12 minutes ago, at 22:50 UTC
Wind 7 kt from the North/Northwest
Temperature 6°C
Humidity 100%
Pressure 1013 hPa
Visibility: 2400 m
light drizzle

METAR: EGDM 172250Z AUTO 34007KT 2400 -DZ BKN002/// BKN008/// 06/06 Q1013

Time: 00:02 (00:02 UTC)

Forecast

The report was made 10 hours and 11 minutes ago, at 13:51 UTC
Forecast valid from 17 at 15 UTC to 17 at 19 UTC
Wind 6 kt from the North
Visibility 10 km or more
Broken clouds at a height of 2000 ft
Temporary
from 17 at 15 UTC to 17 at 16 UTC
Scattered clouds at a height of 1300 ft
Becoming
from 17 at 16 UTC to 17 at 19 UTC
Broken clouds at a height of 1000 ft

TAF: EGDM 171351Z 1715/1719 36006KT 9999 BKN020 TEMPO 1715/1716 SCT013 BECMG 1716/1719 BKN010

Weather observations and forecasts of more than 4000 airports (METAR and TAF reports).

The available stations are represented by yellow and red dots on the map.

Hover mouse over dot to see the name of the station.

Then click to see weather observations and forecasts.

To change the map : click on the green buttons with a black cross to zoom in, on the green button with a dash to zoom out, or on the green arrows for adjacent maps.


METAR-TAF: